Time;durP1;ratioP1;P1;durP2;ratioP2;P2;SDS_P1;SDS_P2;PMS_P1;PMS_P2;Temp;Humidity;BMP_temperature;BMP_pressure;BME280_temperature;BME280_humidity;BME280_pressure;Samples;Min_cycle;Max_cycle;Signal;HPM_P1;HPM_P2
2022/11/15 00:00:03;;;;;;;8.45;5.82;;;;;;;6.67;100.00;100912.41;5042588;28;20051;-72
2022/11/15 00:02:29;;;;;;;11.60;6.70;;;;;;;6.68;100.00;100907.97;5078812;28;20081;-72
2022/11/15 00:04:54;;;;;;;12.40;8.10;;;;;;;6.67;100.00;100906.31;5078821;28;20036;-72
2022/11/15 00:07:19;;;;;;;13.02;7.28;;;;;;;6.59;100.00;100885.94;5059216;28;20551;-72
2022/11/15 00:09:45;;;;;;;9.20;6.95;;;;;;;6.75;100.00;100914.41;5044774;28;20044;-72
2022/11/15 00:12:10;;;;;;;10.15;6.50;;;;;;;6.75;100.00;100917.00;5079213;28;20058;-73
2022/11/15 00:14:36;;;;;;;11.23;8.73;;;;;;;6.55;100.00;100877.53;5061222;28;20029;-72
2022/11/15 00:17:01;;;;;;;11.18;8.35;;;;;;;6.76;100.00;100908.22;5057883;28;20059;-73
2022/11/15 00:19:26;;;;;;;12.90;7.70;;;;;;;6.78;100.00;100898.44;5077098;28;20040;-72
2022/11/15 00:21:52;;;;;;;18.63;8.18;;;;;;;6.79;100.00;100889.59;5078601;28;20096;-72
2022/11/15 00:24:17;;;;;;;17.35;10.50;;;;;;;6.64;100.00;100875.09;5077924;28;20040;-72
2022/11/15 00:26:42;;;;;;;13.98;8.05;;;;;;;6.79;100.00;100889.59;5059107;28;20028;-72
2022/11/15 00:29:08;;;;;;;11.50;7.10;;;;;;;6.79;100.00;100881.72;5074643;28;20127;-72
2022/11/15 00:31:33;;;;;;;10.43;7.28;;;;;;;6.72;100.00;100886.63;5044440;28;20020;-72
2022/11/15 00:33:58;;;;;;;9.98;6.70;;;;;;;6.65;100.00;100876.78;5076809;28;20403;-72
2022/11/15 00:36:24;;;;;;;15.77;8.80;;;;;;;6.62;100.00;100874.38;5056047;28;20480;-72
2022/11/15 00:38:49;;;;;;;12.40;8.43;;;;;;;6.51;100.00;100876.09;5059363;28;20551;-73
2022/11/15 00:41:14;;;;;;;13.35;8.70;;;;;;;6.45;100.00;100873.97;5059007;28;20392;-72
2022/11/15 00:43:43;;;;;;;13.25;7.03;;;;;;;6.27;100.00;100849.19;5057449;28;20408;-74
2022/11/15 00:46:09;;;;;;;8.23;6.13;;;;;;;6.30;100.00;100869.94;5044653;28;20059;-74
2022/11/15 00:48:35;;;;;;;9.18;6.50;;;;;;;6.19;100.00;100868.16;5043216;28;20032;-73
2022/11/15 00:51:00;;;;;;;15.10;8.23;;;;;;;6.10;100.00;100856.63;5057395;28;20085;-72
2022/11/15 00:53:25;;;;;;;17.52;6.70;;;;;;;6.08;100.00;100874.25;5058325;28;20511;-72
2022/11/15 00:55:51;;;;;;;13.30;8.32;;;;;;;6.01;100.00;100873.06;5076365;28;20078;-72
2022/11/15 00:58:16;;;;;;;15.60;9.25;;;;;;;6.00;100.00;100862.69;5077634;28;20035;-72
2022/11/15 01:00:41;;;;;;;16.98;8.85;;;;;;;5.95;100.00;100866.50;5077125;28;20149;-72
2022/11/15 01:03:07;;;;;;;14.35;8.18;;;;;;;5.95;100.00;100863.06;5057568;28;20036;-72
2022/11/15 01:05:32;;;;;;;16.95;9.27;;;;;;;5.94;100.00;100866.59;5058425;28;20031;-72
2022/11/15 01:07:57;;;;;;;18.98;9.18;;;;;;;5.90;100.00;100858.16;5078051;28;20064;-72
2022/11/15 01:10:23;;;;;;;11.57;9.23;;;;;;;5.88;100.00;100843.47;5077472;28;20035;-73
2022/11/15 01:12:49;;;;;;;10.75;7.50;;;;;;;5.69;100.00;100815.28;5076451;28;20024;-73
2022/11/15 01:15:15;;;;;;;12.20;9.52;;;;;;;5.91;100.00;100845.88;5078057;28;20032;-73
2022/11/15 01:17:41;;;;;;;17.88;8.90;;;;;;;5.78;100.00;100820.63;5058923;28;20036;-73
2022/11/15 01:20:07;;;;;;;12.48;7.85;;;;;;;5.83;100.00;100833.38;5058323;28;20484;-73
2022/11/15 01:22:32;;;;;;;13.80;10.10;;;;;;;5.67;100.00;100807.56;5071859;28;20036;-73
2022/11/15 01:24:58;;;;;;;14.55;7.95;;;;;;;5.75;100.00;100833.97;5044971;28;20032;-72
2022/11/15 01:27:23;;;;;;;14.75;8.27;;;;;;;5.71;100.00;100832.53;5076176;28;20029;-72
2022/11/15 01:29:48;;;;;;;15.45;9.85;;;;;;;5.69;100.00;100826.59;5058386;28;20791;-72
2022/11/15 01:32:14;;;;;;;9.88;7.90;;;;;;;5.60;100.00;100814.22;5075134;28;20059;-72
2022/11/15 01:34:39;;;;;;;11.48;7.68;;;;;;;5.59;100.00;100823.00;5074228;28;20044;-72
2022/11/15 01:37:04;;;;;;;19.25;9.57;;;;;;;5.55;100.00;100825.06;5078005;28;20032;-73
2022/11/15 01:39:30;;;;;;;10.57;7.95;;;;;;;5.51;100.00;100823.63;5076217;28;20036;-73
2022/11/15 01:41:55;;;;;;;9.80;7.78;;;;;;;5.44;100.00;100822.41;5072917;28;20071;-73
2022/11/15 01:44:33;;;;;;;9.93;7.35;;;;;;;5.44;100.00;100826.81;5074196;28;20111;-72
2022/11/15 01:47:01;;;;;;;12.65;8.55;;;;;;;5.43;100.00;100823.38;5076531;28;20085;-72
2022/11/15 01:49:30;;;;;;;13.63;7.50;;;;;;;5.45;100.00;100820.63;5070642;28;20053;-72
2022/11/15 01:51:57;;;;;;;13.48;9.07;;;;;;;5.45;100.00;100818.03;5074257;28;20036;-73
2022/11/15 01:54:23;;;;;;;8.18;6.72;;;;;;;5.48;100.00;100805.50;5058515;28;20070;-73
2022/11/15 01:56:55;;;;;;;11.27;9.23;;;;;;;5.57;100.00;100811.81;5058611;28;20082;-73
2022/11/15 01:59:21;;;;;;;8.60;7.72;;;;;;;5.59;100.00;100802.06;5075876;28;20020;-73
2022/11/15 02:01:47;;;;;;;15.68;9.10;;;;;;;5.53;100.00;100782.44;5054179;28;20034;-73
2022/11/15 02:04:21;;;;;;;10.88;8.65;;;;;;;5.55;100.00;100779.69;5073893;28;20899;-73
2022/11/15 02:06:48;;;;;;;10.70;8.65;;;;;;;5.72;100.00;100800.16;5071268;28;20039;-73
2022/11/15 02:09:13;;;;;;;13.27;7.68;;;;;;;5.80;100.00;100790.88;5076455;28;20081;-73
2022/11/15 02:11:39;;;;;;;12.05;8.55;;;;;;;5.85;100.00;100789.56;5074043;28;20064;-73
2022/11/15 02:14:06;;;;;;;10.63;7.72;;;;;;;5.75;100.00;100767.69;5075443;28;20040;-73
2022/11/15 02:16:41;;;;;;;11.23;8.52;;;;;;;5.85;100.00;100778.25;5055067;28;20655;-73
2022/11/15 02:19:31;;;;;;;14.35;7.25;;;;;;;5.92;100.00;100780.28;5077311;28;20024;-72
2022/11/15 02:22:06;;;;;;;10.05;7.03;;;;;;;5.95;100.00;100784.47;5057017;28;20684;-72
2022/11/15 02:24:52;;;;;;;12.30;7.53;;;;;;;5.97;100.00;100798.28;5070988;28;20035;-72
2022/11/15 02:27:35;;;;;;;10.40;7.15;;;;;;;6.01;100.00;100786.59;5075553;28;20081;-72
2022/11/15 02:30:24;;;;;;;11.05;6.30;;;;;;;6.05;100.00;100781.94;5074143;28;20036;-72
2022/11/15 02:32:55;;;;;;;9.60;6.43;;;;;;;6.07;100.00;100782.66;5073070;28;20107;-72
2022/11/15 02:35:39;;;;;;;9.32;7.88;;;;;;;6.09;100.00;100784.19;5056878;28;20071;-72
2022/11/15 02:38:25;;;;;;;7.95;5.63;;;;;;;6.09;100.00;100781.56;5077293;28;20128;-72
2022/11/15 02:40:59;;;;;;;9.23;7.05;;;;;;;6.11;100.00;100777.03;5074002;28;20017;-72
2022/11/15 02:47:12;;;;;;;8.02;5.88;;;;;;;6.06;100.00;100754.81;5075546;28;20047;-72
2022/11/15 02:49:11;;;;;;;16.23;7.93;;;;;;;6.14;100.00;100765.47;5077511;28;20537;-72
2022/11/15 02:51:36;;;;;;;6.90;6.07;;;;;;;6.15;100.00;100761.91;5075520;28;20062;-72
2022/11/15 02:54:02;;;;;;;16.30;6.90;;;;;;;6.17;100.00;100758.22;5075548;28;20074;-72
2022/11/15 02:56:27;;;;;;;12.63;7.03;;;;;;;6.04;100.00;100741.00;5079940;28;20039;-73
2022/11/15 02:59:27;;;;;;;10.43;5.75;;;;;;;6.16;100.00;100761.81;5058495;28;20537;-73
2022/11/15 03:02:03;;;;;;;10.02;6.32;;;;;;;6.08;100.00;100745.84;5078471;28;20106;-73
2022/11/15 03:04:51;;;;;;;14.48;7.57;;;;;;;6.22;100.00;100751.78;5078045;28;20503;-73
2022/11/15 03:07:43;;;;;;;8.40;6.07;;;;;;;6.26;100.00;100769.75;5052019;28;20441;-73
2022/11/15 03:10:17;;;;;;;8.50;4.97;;;;;;;6.25;100.00;100770.72;5064075;28;20048;-73
2022/11/15 03:12:50;;;;;;;10.00;6.35;;;;;;;6.17;100.00;100750.34;5078236;28;20036;-73
2022/11/15 03:15:30;;;;;;;13.23;6.32;;;;;;;6.30;100.00;100765.91;5078462;28;20024;-73
2022/11/15 03:18:00;;;;;;;8.23;6.88;;;;;;;6.32;100.00;100757.94;5063072;28;20024;-72
2022/11/15 03:20:27;;;;;;;11.15;6.78;;;;;;;6.33;100.00;100759.59;5075294;28;20468;-72
2022/11/15 03:22:58;;;;;;;15.80;6.53;;;;;;;6.32;100.00;100757.94;5076842;28;20028;-72
2022/11/15 03:25:26;;;;;;;11.23;6.78;;;;;;;6.36;100.00;100751.50;5059017;28;20070;-72
2022/11/15 03:27:57;;;;;;;8.68;4.93;;;;;;;6.39;100.00;100756.47;5079220;28;20028;-72
2022/11/15 03:30:22;;;;;;;10.85;7.10;;;;;;;6.41;100.00;100754.56;5079027;28;20027;-72
2022/11/15 03:32:55;;;;;;;11.75;5.88;;;;;;;6.29;100.00;100742.44;5074909;28;20131;-72
2022/11/15 03:35:23;;;;;;;14.38;6.65;;;;;;;6.42;100.00;100758.84;5076021;28;20039;-72
2022/11/15 03:37:58;;;;;;;11.75;6.03;;;;;;;6.39;100.00;100754.69;5080648;28;20094;-72
2022/11/15 03:40:33;;;;;;;12.60;7.07;;;;;;;6.40;100.00;100755.50;5079896;28;20027;-72
2022/11/15 03:43:08;;;;;;;10.48;7.05;;;;;;;6.40;100.00;100752.88;5076448;28;20120;-72
2022/11/15 03:45:47;;;;;;;8.63;5.75;;;;;;;6.41;100.00;100746.69;5077937;28;20028;-72
2022/11/15 03:48:20;;;;;;;9.60;5.55;;;;;;;6.41;100.00;100751.94;5076525;28;20156;-72
2022/11/15 03:50:46;;;;;;;15.23;7.00;;;;;;;6.44;100.00;100748.22;5077919;28;20388;-72
2022/11/15 03:53:12;;;;;;;15.68;7.53;;;;;;;6.40;100.00;100745.00;5077213;28;20039;-72
2022/11/15 03:55:38;;;;;;;12.52;7.93;;;;;;;6.40;100.00;100745.00;5074136;28;20564;-72
2022/11/15 03:58:03;;;;;;;10.85;7.05;;;;;;;6.39;100.00;100738.94;5060198;28;20482;-72
2022/11/15 04:00:29;;;;;;;11.95;7.38;;;;;;;6.37;100.00;100729.56;5057519;28;20028;-72
2022/11/15 04:02:54;;;;;;;9.63;6.90;;;;;;;6.36;100.00;100717.41;5077616;28;20109;-72
2022/11/15 04:05:20;;;;;;;9.57;6.63;;;;;;;6.50;100.00;100738.06;5027363;28;20078;-72
2022/11/15 04:07:45;;;;;;;16.05;6.00;;;;;;;6.49;100.00;100739.03;5045513;28;20472;-72
2022/11/15 04:10:11;;;;;;;15.68;7.85;;;;;;;6.49;100.00;100732.94;5077112;28;20032;-71
2022/11/15 04:12:43;;;;;;;14.95;7.35;;;;;;;6.50;100.00;100727.59;5075067;28;20043;-72
2022/11/15 04:15:13;;;;;;;13.50;8.05;;;;;;;6.38;100.00;100705.03;5076179;28;20442;-71
2022/11/15 04:17:53;;;;;;;18.35;8.00;;;;;;;6.42;100.00;100710.81;5059308;28;20512;-71
2022/11/15 04:25:58;;;;;;;14.13;8.18;;;;;;;6.57;100.00;100725.28;5077341;28;20089;-71
2022/11/15 04:28:23;;;;;;;16.65;7.95;;;;;;;6.57;100.00;100733.16;5077652;28;20036;-72
2022/11/15 04:30:49;;;;;;;17.35;9.75;;;;;;;6.61;100.00;100728.50;5043408;28;20033;-72
2022/11/15 04:33:14;;;;;;;20.02;9.93;;;;;;;6.62;100.00;100717.03;5076978;28;20795;-72
2022/11/15 04:35:40;;;;;;;10.77;7.78;;;;;;;6.67;100.00;100728.00;5075573;28;20028;-71
2022/11/15 04:38:07;;;;;;;13.63;9.13;;;;;;;6.64;100.00;100736.94;5076522;28;20158;-71
2022/11/15 04:40:33;;;;;;;11.75;7.60;;;;;;;6.65;100.00;100727.28;5077933;28;20032;-71
2022/11/15 04:42:59;;;;;;;11.23;8.68;;;;;;;6.70;100.00;100730.34;5074087;28;20036;-71
2022/11/15 04:45:25;;;;;;;14.88;9.88;;;;;;;6.66;100.00;100742.06;5076185;28;20032;-71
2022/11/15 04:47:50;;;;;;;14.85;8.02;;;;;;;6.66;100.00;100737.63;5061462;28;20074;-72
2022/11/15 04:50:16;;;;;;;13.20;9.88;;;;;;;6.69;100.00;100739.19;5076192;28;20059;-72
2022/11/15 04:52:52;;;;;;;16.25;9.95;;;;;;;6.69;100.00;100749.69;5076249;28;20043;-72
2022/11/15 04:55:17;;;;;;;27.45;11.52;;;;;;;6.69;100.00;100739.19;5077217;28;20077;-72
2022/11/15 04:57:42;;;;;;;10.77;9.48;;;;;;;6.67;100.00;100747.19;5057253;28;20028;-72
2022/11/15 05:00:12;;;;;;;11.02;9.88;;;;;;;6.68;100.00;100753.25;5057773;28;20036;-71
2022/11/15 05:05:21;;;;;;;17.23;11.15;;;;;;;6.71;100.00;100737.28;5075405;28;20062;-71
2022/11/15 05:07:47;;;;;;;18.50;11.95;;;;;;;6.75;100.00;100743.91;5075299;28;20044;-72
2022/11/15 05:10:12;;;;;;;23.40;11.32;;;;;;;6.76;100.00;100748.19;5077520;28;20020;-72
2022/11/15 05:12:37;;;;;;;23.80;12.57;;;;;;;6.78;100.00;100744.50;5075880;28;20059;-72
2022/11/15 05:15:03;;;;;;;30.50;13.32;;;;;;;6.67;100.00;100731.44;5074657;28;20024;-72
2022/11/15 05:17:28;;;;;;;18.90;12.18;;;;;;;6.76;100.00;100742.97;5077892;28;20052;-72
2022/11/15 05:19:54;;;;;;;20.25;12.30;;;;;;;6.79;100.00;100745.31;5060975;28;20028;-72
2022/11/15 05:22:20;;;;;;;16.17;12.13;;;;;;;6.77;100.00;100741.97;5075787;28;20039;-72
2022/11/15 05:24:45;;;;;;;21.73;12.50;;;;;;;6.85;100.00;100731.69;5074466;28;20081;-72
2022/11/15 05:27:10;;;;;;;17.98;11.23;;;;;;;6.84;100.00;100727.41;5077877;28;20028;-72
2022/11/15 05:29:36;;;;;;;19.35;11.90;;;;;;;6.84;100.00;100727.41;5060593;28;20107;-72
2022/11/15 05:32:05;;;;;;;15.45;10.38;;;;;;;6.88;100.00;100731.44;5057023;28;20059;-72
2022/11/15 05:34:30;;;;;;;17.75;11.15;;;;;;;6.87;100.00;100732.41;5074651;28;20035;-72
2022/11/15 05:36:56;;;;;;;18.48;12.13;;;;;;;6.88;100.00;100723.56;5075928;28;20110;-72
2022/11/15 05:39:21;;;;;;;20.27;11.43;;;;;;;6.93;100.00;100726.63;5058551;28;20023;-72
2022/11/15 05:41:52;;;;;;;15.40;12.30;;;;;;;6.95;100.00;100729.97;5056462;28;20076;-72
2022/11/15 05:44:20;;;;;;;16.00;12.32;;;;;;;6.93;100.00;100729.25;5076982;28;20070;-72
2022/11/15 05:46:48;;;;;;;12.57;11.20;;;;;;;6.97;100.00;100738.53;5071610;28;20040;-72
2022/11/15 05:49:17;;;;;;;25.15;11.65;;;;;;;6.98;100.00;100734.94;5055490;28;20103;-72
2022/11/15 05:51:45;;;;;;;11.73;9.25;;;;;;;7.00;100.00;100746.13;5073523;28;20514;-72
2022/11/15 05:54:11;;;;;;;20.65;12.70;;;;;;;6.96;100.00;100725.53;5074949;28;20037;-72
2022/11/15 05:56:36;;;;;;;20.33;11.10;;;;;;;6.92;100.00;100730.19;5056713;28;20998;-72
2022/11/15 05:59:02;;;;;;;17.92;11.60;;;;;;;7.06;100.00;100741.34;5040878;28;20028;-72
2022/11/15 06:01:28;;;;;;;20.33;11.63;;;;;;;7.10;100.00;100747.97;5071864;28;20864;-72
2022/11/15 06:03:53;;;;;;;24.40;12.82;;;;;;;7.11;100.00;100744.41;5072269;28;20535;-72
2022/11/15 06:06:19;;;;;;;18.98;13.85;;;;;;;7.17;100.00;100755.22;5072449;28;20110;-71
2022/11/15 06:08:44;;;;;;;21.67;13.32;;;;;;;7.20;100.00;100744.44;5072415;28;20048;-71
2022/11/15 06:11:10;;;;;;;23.42;13.68;;;;;;;7.11;100.00;100733.91;5051358;28;20028;-72
2022/11/15 06:13:35;;;;;;;33.03;15.38;;;;;;;7.23;100.00;100756.50;5071420;28;20507;-72
2022/11/15 06:16:01;;;;;;;30.60;14.80;;;;;;;7.15;100.00;100741.38;5071388;28;20093;-72
2022/11/15 06:18:26;;;;;;;24.58;15.90;;;;;;;7.21;100.00;100754.00;5053441;28;20025;-72
2022/11/15 06:20:52;;;;;;;35.38;15.63;;;;;;;7.27;100.00;100755.25;5035658;28;20122;-71
2022/11/15 06:23:17;;;;;;;26.30;13.80;;;;;;;7.24;100.00;100754.69;5067296;28;20465;-72
2022/11/15 06:25:43;;;;;;;21.33;14.98;;;;;;;7.37;100.00;100779.78;5054208;28;20433;-72
2022/11/15 06:28:08;;;;;;;32.13;18.00;;;;;;;7.36;100.00;100767.63;5072191;28;20537;-71
2022/11/15 06:30:34;;;;;;;37.72;16.60;;;;;;;7.43;100.00;100778.44;5055396;28;20116;-71
2022/11/15 06:33:04;;;;;;;29.35;16.60;;;;;;;7.48;100.00;100778.03;5066388;28;20618;-71
2022/11/15 06:35:30;;;;;;;34.30;16.83;;;;;;;7.47;100.00;100787.72;5065801;28;20038;-71
2022/11/15 06:38:03;;;;;;;29.23;17.73;;;;;;;7.51;100.00;100785.63;5053704;28;20177;-71
2022/11/15 06:40:29;;;;;;;27.00;16.58;;;;;;;7.47;100.00;100776.34;5066775;28;20071;-71
2022/11/15 06:43:01;;;;;;;46.75;18.52;;;;;;;7.51;100.00;100783.00;5054615;28;20170;-71
2022/11/15 06:45:27;;;;;;;35.30;16.60;;;;;;;7.60;100.00;100798.81;5065957;28;20024;-71
2022/11/15 06:47:52;;;;;;;26.60;17.52;;;;;;;7.74;100.00;100808.13;5049752;28;20036;-71
2022/11/15 06:50:17;;;;;;;29.38;16.10;;;;;;;7.77;100.00;100801.78;5053525;28;20412;-71
2022/11/15 06:52:43;;;;;;;29.60;18.00;;;;;;;7.83;100.00;100802.06;5065752;28;20130;-71
2022/11/15 06:55:08;;;;;;;23.05;16.13;;;;;;;7.86;100.00;100810.66;5072274;28;20033;-71
2022/11/15 06:57:34;;;;;;;35.83;17.77;;;;;;;7.79;100.00;100784.91;5038158;28;20025;-71
2022/11/15 06:59:59;;;;;;;22.42;13.95;;;;;;;7.80;100.00;100793.66;5054082;28;20032;-71
2022/11/15 07:02:25;;;;;;;18.92;15.48;;;;;;;7.85;100.00;100798.50;5072174;28;20496;-71
2022/11/15 07:04:50;;;;;;;24.90;15.40;;;;;;;7.96;100.00;100814.97;5071952;28;20130;-71
2022/11/15 07:07:16;;;;;;;29.83;20.20;;;;;;;7.85;100.00;100790.63;5054617;28;20047;-71
2022/11/15 07:09:41;;;;;;;24.13;13.48;;;;;;;8.02;100.00;100806.56;5055153;28;20139;-71
2022/11/15 07:12:07;;;;;;;24.23;16.02;;;;;;;8.06;100.00;100816.78;5072749;28;20066;-71
2022/11/15 07:14:32;;;;;;;24.15;14.88;;;;;;;8.09;100.00;100808.66;5072593;28;20024;-71
2022/11/15 07:16:57;;;;;;;34.72;16.85;;;;;;;8.12;100.00;100824.16;5054418;28;20066;-71
2022/11/15 07:19:23;;;;;;;23.30;18.00;;;;;;;8.15;100.00;100823.91;5072310;28;20017;-71
2022/11/15 07:21:48;;;;;;;23.98;13.48;;;;;;;8.20;100.00;100819.88;5072552;28;20079;-71
2022/11/15 07:24:13;;;;;;;21.92;15.98;;;;;;;8.24;100.00;100818.66;5072397;28;20029;-71
2022/11/15 07:26:39;;;;;;;32.08;16.25;;;;;;;8.22;100.00;100812.69;5070555;28;20085;-71
2022/11/15 07:29:04;;;;;;;21.92;13.38;;;;;;;8.30;100.00;100822.53;5053913;28;20028;-71
2022/11/15 07:31:29;;;;;;;27.67;15.35;;;;;;;8.35;100.00;100827.38;5072929;28;20370;-71
2022/11/15 07:33:55;;;;;;;30.85;17.63;;;;;;;8.39;100.00;100831.41;5074069;28;20117;-71
2022/11/15 07:36:20;;;;;;;26.17;14.95;;;;;;;8.44;100.00;100831.84;5023925;28;20123;-71
2022/11/15 07:38:46;;;;;;;44.10;15.93;;;;;;;8.39;100.00;100832.25;5042705;28;20079;-71
2022/11/15 07:41:11;;;;;;;29.58;14.73;;;;;;;8.46;100.00;100843.06;5076536;28;20067;-71
2022/11/15 07:43:36;;;;;;;31.30;15.43;;;;;;;8.37;100.00;100822.84;5059042;28;20044;-71
2022/11/15 07:46:08;;;;;;;17.73;11.68;;;;;;;8.50;100.00;100838.38;5057878;28;20059;-71
2022/11/15 07:48:39;;;;;;;23.60;14.40;;;;;;;8.47;100.00;100828.97;5077052;28;20021;-71
2022/11/15 07:51:05;;;;;;;21.17;13.63;;;;;;;8.56;100.00;100843.09;5077652;28;20028;-71
2022/11/15 07:53:30;;;;;;;19.10;13.07;;;;;;;8.58;100.00;100835.88;5076502;28;20327;-71
2022/11/15 07:55:55;;;;;;;25.00;14.52;;;;;;;8.60;100.00;100834.81;5075931;28;20469;-71
2022/11/15 07:58:21;;;;;;;19.85;12.13;;;;;;;8.64;100.00;100836.19;5041604;28;20141;-71
2022/11/15 08:00:46;;;;;;;19.15;12.68;;;;;;;8.57;100.00;100819.28;5077518;28;20059;-71
2022/11/15 08:03:16;;;;;;;23.80;11.50;;;;;;;8.73;100.00;100838.94;5058689;28;20081;-71
2022/11/15 08:05:42;;;;;;;20.27;11.10;;;;;;;8.79;100.00;100838.41;5076633;28;20032;-71
2022/11/15 08:08:10;;;;;;;19.77;13.68;;;;;;;8.72;100.00;100818.88;5074707;28;20065;-71
2022/11/15 08:10:36;;;;;;;21.90;11.63;;;;;;;8.90;100.00;100829.53;5076365;28;20066;-71
2022/11/15 08:13:04;;;;;;;22.13;13.25;;;;;;;8.85;100.00;100832.59;5056632;28;20040;-71
2022/11/15 08:15:30;;;;;;;19.55;12.70;;;;;;;8.97;100.00;100847.28;5075130;28;20047;-71
2022/11/15 08:18:01;;;;;;;19.45;12.68;;;;;;;9.00;100.00;100844.34;5074738;28;20032;-71
2022/11/15 08:20:32;;;;;;;19.02;13.13;;;;;;;9.03;100.00;100846.69;5058307;28;20016;-71
2022/11/15 08:22:58;;;;;;;24.47;11.60;;;;;;;9.06;100.00;100846.44;5058070;28;20066;-71
2022/11/15 08:25:28;;;;;;;22.20;12.25;;;;;;;9.00;100.00;100822.47;5076922;28;20273;-71
2022/11/15 08:27:55;;;;;;;15.10;10.10;;;;;;;9.15;100.00;100836.03;5073416;28;20024;-71
2022/11/15 08:30:21;;;;;;;21.58;11.73;;;;;;;9.19;100.00;100834.75;5058522;28;20028;-71
2022/11/15 08:32:47;;;;;;;15.90;10.93;;;;;;;9.21;100.00;100843.34;5074889;28;20128;-71
2022/11/15 08:35:13;;;;;;;15.10;10.48;;;;;;;9.27;100.00;100840.16;5072969;28;20101;-72
2022/11/15 08:37:38;;;;;;;15.60;11.20;;;;;;;9.30;100.00;100839.88;5056017;28;20028;-72
2022/11/15 08:40:05;;;;;;;26.60;12.25;;;;;;;9.32;100.00;100837.94;5076778;28;20056;-72
2022/11/15 08:42:30;;;;;;;16.45;11.38;;;;;;;9.38;100.00;100834.72;5058352;28;20479;-72
2022/11/15 08:44:56;;;;;;;14.45;10.13;;;;;;;9.33;100.00;100813.25;5074356;28;20081;-72
2022/11/15 08:47:21;;;;;;;22.80;12.65;;;;;;;9.54;100.00;100822.75;5039004;28;20031;-72
2022/11/15 08:49:47;;;;;;;15.00;9.93;;;;;;;9.57;100.00;100814.56;5075525;28;20029;-72
2022/11/15 08:52:14;;;;;;;16.55;10.48;;;;;;;9.61;100.00;100818.56;5058838;28;20699;-72
2022/11/15 08:54:39;;;;;;;15.52;10.63;;;;;;;9.54;100.00;100801.66;5073988;28;20092;-72
2022/11/15 08:57:06;;;;;;;14.02;9.88;;;;;;;9.79;100.00;100826.53;5056904;28;20032;-72
2022/11/15 08:59:31;;;;;;;30.98;12.55;;;;;;;9.85;100.00;100813.63;5075345;28;20117;-72
2022/11/15 09:01:56;;;;;;;17.67;11.75;;;;;;;9.89;100.00;100807.06;5074558;28;20021;-72
2022/11/15 09:04:22;;;;;;;13.35;9.40;;;;;;;9.87;100.00;100808.19;5074319;28;20025;-72
2022/11/15 09:06:47;;;;;;;15.38;10.27;;;;;;;9.86;100.00;100801.25;5041380;28;20045;-72
2022/11/15 09:09:13;;;;;;;10.52;9.05;;;;;;;9.79;100.00;100790.47;5040306;28;20087;-72
2022/11/15 09:11:38;;;;;;;15.57;9.30;;;;;;;9.91;100.00;100804.31;5055529;28;20476;-72
2022/11/15 09:14:03;;;;;;;17.98;9.48;;;;;;;9.93;100.00;100790.94;5074942;28;20608;-72
2022/11/15 09:16:30;;;;;;;14.43;10.65;;;;;;;9.89;100.00;100772.81;5056355;28;20036;-72
2022/11/15 09:18:56;;;;;;;18.15;11.27;;;;;;;10.05;100.00;100793.25;5074979;28;20499;-72
2022/11/15 09:21:21;;;;;;;11.68;8.43;;;;;;;10.09;100.00;100793.78;5073587;28;20138;-72
2022/11/15 09:23:47;;;;;;;16.80;9.90;;;;;;;10.14;100.00;100790.69;5056201;28;20032;-72
2022/11/15 09:26:12;;;;;;;20.98;9.75;;;;;;;10.22;100.00;100781.06;5072828;28;20040;-72
2022/11/15 09:28:41;;;;;;;24.95;10.73;;;;;;;10.26;100.00;100771.88;5054972;28;20112;-72
2022/11/15 09:31:07;;;;;;;19.73;8.10;;;;;;;10.29;100.00;100781.31;5073846;28;20115;-72
2022/11/15 09:33:33;;;;;;;13.32;9.05;;;;;;;10.30;100.00;100772.44;5054863;28;20130;-72
2022/11/15 09:36:04;;;;;;;14.60;8.90;;;;;;;10.35;100.00;100774.63;5073111;28;20552;-72
2022/11/15 09:38:30;;;;;;;17.08;10.10;;;;;;;10.35;100.00;100779.91;5056252;28;20028;-72
2022/11/15 09:41:13;;;;;;;16.00;9.77;;;;;;;10.36;100.00;100771.00;5075219;28;20043;-72
2022/11/15 09:43:58;;;;;;;12.48;8.63;;;;;;;10.43;100.00;100767.63;5072941;28;20028;-71
2022/11/15 09:46:59;;;;;;;15.90;9.13;;;;;;;10.54;100.00;100768.34;5072011;28;20035;-71
2022/11/15 09:49:25;;;;;;;11.10;8.18;;;;;;;10.51;100.00;100753.66;5056644;28;20077;-72
2022/11/15 09:51:53;;;;;;;10.57;9.32;;;;;;;10.47;100.00;100749.66;5056190;28;20024;-71
2022/11/15 09:54:39;;;;;;;13.05;7.35;;;;;;;10.64;100.00;100767.28;5073803;28;20077;-71
2022/11/15 09:57:14;;;;;;;11.07;8.38;;;;;;;10.72;100.00;100757.81;5072431;28;20026;-71
2022/11/15 09:59:55;;;;;;;11.93;8.02;;;;;;;10.70;100.00;100753.50;5072085;28;20062;-72
2022/11/15 10:02:45;;;;;;;14.52;8.05;;;;;;;10.69;100.00;100754.50;5074073;28;20557;-72
2022/11/15 10:05:14;;;;;;;14.23;8.13;;;;;;;10.68;100.00;100750.19;5073168;28;20420;-72
2022/11/15 10:08:27;;;;;;;10.20;7.97;;;;;;;10.75;100.00;100744.28;5074654;28;20107;-72
2022/11/15 10:11:02;;;;;;;11.43;7.05;;;;;;;10.77;100.00;100737.06;4993190;28;20077;-71
2022/11/15 10:13:41;;;;;;;11.07;7.95;;;;;;;10.82;100.00;100732.97;4967038;28;20030;-71
2022/11/15 10:16:17;;;;;;;9.52;8.15;;;;;;;10.87;100.00;100732.50;4993698;28;20034;-71
2022/11/15 10:19:04;;;;;;;15.45;9.07;;;;;;;10.87;100.00;100724.59;4992228;28;20026;-71
2022/11/15 10:21:50;;;;;;;13.25;8.35;;;;;;;10.98;100.00;100724.31;4992214;28;20046;-71
2022/11/15 10:24:23;;;;;;;11.75;8.55;;;;;;;11.02;100.00;100722.22;4993414;28;20026;-71
2022/11/15 10:26:54;;;;;;;16.33;9.02;;;;;;;11.00;100.00;100722.34;4994204;28;20037;-72
2022/11/15 10:29:21;;;;;;;12.05;9.07;;;;;;;10.95;100.00;100719.34;4992754;28;20089;-72
2022/11/15 10:31:47;;;;;;;13.57;8.27;;;;;;;10.85;100.00;100708.06;4992674;28;20049;-72
2022/11/15 10:34:14;;;;;;;11.43;8.25;;;;;;;10.80;100.00;100710.31;4992259;28;20050;-72
2022/11/15 10:36:45;;;;;;;9.82;7.28;;;;;;;10.79;100.00;100708.69;4993439;28;20026;-72
2022/11/15 10:39:13;;;;;;;12.07;7.22;;;;;;;10.81;100.00;100707.53;4991657;28;20599;-72
2022/11/15 10:41:41;;;;;;;11.82;7.63;;;;;;;10.69;100.00;100683.22;4993113;28;20099;-72
2022/11/15 10:44:06;;;;;;;12.25;9.35;;;;;;;10.81;100.00;100702.25;4977845;28;20422;-72
2022/11/15 10:46:33;;;;;;;15.70;9.13;;;;;;;10.82;100.00;100709.22;5017787;28;20036;-72
2022/11/15 10:49:19;;;;;;;10.27;8.25;;;;;;;10.81;100.00;100701.44;5056622;28;20037;-72
2022/11/15 10:51:56;;;;;;;11.35;9.43;;;;;;;10.80;100.00;100705.91;5072933;28;20055;-72
2022/11/15 10:54:24;;;;;;;14.00;9.60;;;;;;;10.80;100.00;100710.31;5073546;28;20031;-72
2022/11/15 10:56:55;;;;;;;16.23;9.70;;;;;;;10.68;100.00;100686.81;5074932;28;20020;-72
2022/11/15 10:59:29;;;;;;;;;;;;;;;10.75;100.00;100694.13;5055612;28;20024;-72
2022/11/15 11:01:54;;;;;;;14.18;7.13;;;;;;;10.75;100.00;100687.03;5072923;28;19916;-71
2022/11/15 11:04:20;;;;;;;18.25;9.35;;;;;;;10.78;100.00;100688.53;5073086;28;20135;-71
2022/11/15 11:06:59;;;;;;;17.48;12.75;;;;;;;10.78;100.00;100688.53;5073825;28;20028;-71
2022/11/15 11:09:38;;;;;;;23.65;14.63;;;;;;;10.75;100.00;100688.84;5072415;28;20493;-71
2022/11/15 11:12:09;;;;;;;25.65;14.80;;;;;;;10.78;100.00;100680.63;5078212;28;20020;-71
2022/11/15 11:14:36;;;;;;;19.55;13.68;;;;;;;10.75;100.00;100676.47;5074434;28;20016;-71
2022/11/15 11:17:32;;;;;;;19.77;14.20;;;;;;;10.85;100.00;100681.66;5077427;28;20055;-71
2022/11/15 11:20:20;;;;;;;18.42;12.18;;;;;;;10.79;100.00;100683.09;5076368;28;20086;-71
2022/11/15 11:23:08;;;;;;;17.08;12.05;;;;;;;10.82;100.00;100676.69;5076223;28;20013;-71
2022/11/15 11:25:46;;;;;;;16.90;12.50;;;;;;;10.75;100.00;100681.75;5078210;28;20039;-71
2022/11/15 11:28:21;;;;;;;16.50;12.55;;;;;;;10.72;100.00;100681.25;5076083;28;20086;-71
2022/11/15 11:31:17;;;;;;;18.77;14.45;;;;;;;10.59;100.00;100684.31;5077609;28;20043;-71
2022/11/15 11:33:43;;;;;;;20.00;12.52;;;;;;;10.53;100.00;100687.56;5079075;28;20036;-71